sensor_id;sensor_type;location;lat;lon;timestamp;P1;durP1;ratioP1;P2;durP2;ratioP2
22144;SDS011;11238;48.730;11.566;2022-07-26T00:02:00;10.68;;;8.43;;
22144;SDS011;11238;48.730;11.566;2022-07-26T00:04:26;10.02;;;8.50;;
22144;SDS011;11238;48.730;11.566;2022-07-26T00:06:52;9.82;;;8.27;;
22144;SDS011;11238;48.730;11.566;2022-07-26T00:09:18;11.90;;;8.68;;
22144;SDS011;11238;48.730;11.566;2022-07-26T00:11:44;15.02;;;8.30;;
22144;SDS011;11238;48.730;11.566;2022-07-26T00:14:10;10.90;;;7.70;;
22144;SDS011;11238;48.730;11.566;2022-07-26T00:16:37;9.82;;;7.78;;
22144;SDS011;11238;48.730;11.566;2022-07-26T00:19:03;9.70;;;7.72;;
22144;SDS011;11238;48.730;11.566;2022-07-26T00:21:29;9.93;;;7.95;;
22144;SDS011;11238;48.730;11.566;2022-07-26T00:23:55;8.60;;;7.50;;
22144;SDS011;11238;48.730;11.566;2022-07-26T00:26:21;10.00;;;8.30;;
22144;SDS011;11238;48.730;11.566;2022-07-26T00:28:48;11.85;;;8.23;;
22144;SDS011;11238;48.730;11.566;2022-07-26T00:31:13;8.57;;;7.47;;
22144;SDS011;11238;48.730;11.566;2022-07-26T00:33:40;8.50;;;7.60;;
22144;SDS011;11238;48.730;11.566;2022-07-26T00:36:05;9.20;;;7.18;;
22144;SDS011;11238;48.730;11.566;2022-07-26T00:38:32;11.02;;;8.65;;
22144;SDS011;11238;48.730;11.566;2022-07-26T00:40:58;8.50;;;7.60;;
22144;SDS011;11238;48.730;11.566;2022-07-26T00:43:24;8.32;;;7.45;;
22144;SDS011;11238;48.730;11.566;2022-07-26T00:45:49;10.05;;;7.30;;
22144;SDS011;11238;48.730;11.566;2022-07-26T00:48:15;8.82;;;7.50;;
22144;SDS011;11238;48.730;11.566;2022-07-26T00:50:42;10.82;;;7.68;;
22144;SDS011;11238;48.730;11.566;2022-07-26T00:53:08;13.20;;;7.60;;
22144;SDS011;11238;48.730;11.566;2022-07-26T00:55:34;10.07;;;7.47;;
22144;SDS011;11238;48.730;11.566;2022-07-26T00:58:00;10.65;;;6.50;;
22144;SDS011;11238;48.730;11.566;2022-07-26T01:00:26;10.35;;;7.15;;
22144;SDS011;11238;48.730;11.566;2022-07-26T01:02:53;8.13;;;7.32;;
22144;SDS011;11238;48.730;11.566;2022-07-26T01:05:20;10.63;;;7.00;;
22144;SDS011;11238;48.730;11.566;2022-07-26T01:07:47;10.48;;;6.85;;
22144;SDS011;11238;48.730;11.566;2022-07-26T01:10:14;7.53;;;6.78;;
22144;SDS011;11238;48.730;11.566;2022-07-26T01:12:40;11.45;;;6.72;;
22144;SDS011;11238;48.730;11.566;2022-07-26T01:15:08;7.55;;;6.65;;
22144;SDS011;11238;48.730;11.566;2022-07-26T01:17:35;10.90;;;6.38;;
22144;SDS011;11238;48.730;11.566;2022-07-26T01:20:01;11.60;;;6.50;;
22144;SDS011;11238;48.730;11.566;2022-07-26T01:22:27;8.95;;;6.20;;
22144;SDS011;11238;48.730;11.566;2022-07-26T01:24:53;9.35;;;6.03;;
22144;SDS011;11238;48.730;11.566;2022-07-26T01:27:19;7.95;;;5.90;;
22144;SDS011;11238;48.730;11.566;2022-07-26T01:29:45;6.60;;;5.70;;
22144;SDS011;11238;48.730;11.566;2022-07-26T01:32:11;8.40;;;6.05;;
22144;SDS011;11238;48.730;11.566;2022-07-26T01:34:36;7.25;;;5.70;;
22144;SDS011;11238;48.730;11.566;2022-07-26T01:37:02;6.43;;;5.78;;
22144;SDS011;11238;48.730;11.566;2022-07-26T01:39:30;10.98;;;6.15;;
22144;SDS011;11238;48.730;11.566;2022-07-26T01:41:56;6.22;;;5.57;;
22144;SDS011;11238;48.730;11.566;2022-07-26T01:44:22;6.70;;;5.20;;
22144;SDS011;11238;48.730;11.566;2022-07-26T01:46:48;7.80;;;5.80;;
22144;SDS011;11238;48.730;11.566;2022-07-26T01:49:14;9.70;;;5.63;;
22144;SDS011;11238;48.730;11.566;2022-07-26T01:51:40;8.13;;;5.30;;
22144;SDS011;11238;48.730;11.566;2022-07-26T01:54:06;7.47;;;5.47;;
22144;SDS011;11238;48.730;11.566;2022-07-26T01:56:31;7.28;;;5.32;;
22144;SDS011;11238;48.730;11.566;2022-07-26T01:58:57;12.30;;;5.22;;
22144;SDS011;11238;48.730;11.566;2022-07-26T02:01:23;6.50;;;5.18;;
22144;SDS011;11238;48.730;11.566;2022-07-26T02:03:48;8.07;;;5.45;;
22144;SDS011;11238;48.730;11.566;2022-07-26T02:06:14;9.45;;;5.32;;
22144;SDS011;11238;48.730;11.566;2022-07-26T02:08:40;8.00;;;5.22;;
22144;SDS011;11238;48.730;11.566;2022-07-26T02:11:06;8.75;;;5.50;;
22144;SDS011;11238;48.730;11.566;2022-07-26T02:13:39;8.45;;;5.07;;
22144;SDS011;11238;48.730;11.566;2022-07-26T02:16:07;7.85;;;5.18;;
22144;SDS011;11238;48.730;11.566;2022-07-26T02:18:35;7.95;;;5.28;;
22144;SDS011;11238;48.730;11.566;2022-07-26T02:21:02;10.48;;;5.20;;
22144;SDS011;11238;48.730;11.566;2022-07-26T02:23:29;7.88;;;5.05;;
22144;SDS011;11238;48.730;11.566;2022-07-26T02:25:55;9.07;;;5.07;;
22144;SDS011;11238;48.730;11.566;2022-07-26T02:28:21;7.70;;;5.10;;
22144;SDS011;11238;48.730;11.566;2022-07-26T02:30:48;6.90;;;5.40;;
22144;SDS011;11238;48.730;11.566;2022-07-26T02:33:14;11.52;;;5.82;;
22144;SDS011;11238;48.730;11.566;2022-07-26T02:35:41;10.55;;;5.47;;
22144;SDS011;11238;48.730;11.566;2022-07-26T02:38:08;8.52;;;5.38;;
22144;SDS011;11238;48.730;11.566;2022-07-26T02:40:36;7.45;;;5.18;;
22144;SDS011;11238;48.730;11.566;2022-07-26T02:43:03;9.32;;;5.22;;
22144;SDS011;11238;48.730;11.566;2022-07-26T02:45:30;5.38;;;4.88;;
22144;SDS011;11238;48.730;11.566;2022-07-26T02:47:57;7.32;;;5.40;;
22144;SDS011;11238;48.730;11.566;2022-07-26T02:50:23;9.13;;;5.55;;
22144;SDS011;11238;48.730;11.566;2022-07-26T02:52:50;6.68;;;5.00;;
22144;SDS011;11238;48.730;11.566;2022-07-26T02:55:18;8.80;;;5.00;;
22144;SDS011;11238;48.730;11.566;2022-07-26T02:57:45;9.10;;;5.43;;
22144;SDS011;11238;48.730;11.566;2022-07-26T03:00:11;7.22;;;5.30;;
22144;SDS011;11238;48.730;11.566;2022-07-26T03:02:38;6.93;;;5.00;;
22144;SDS011;11238;48.730;11.566;2022-07-26T03:05:05;6.63;;;4.63;;
22144;SDS011;11238;48.730;11.566;2022-07-26T03:07:32;5.70;;;4.72;;
22144;SDS011;11238;48.730;11.566;2022-07-26T03:09:58;8.48;;;5.15;;
22144;SDS011;11238;48.730;11.566;2022-07-26T03:12:24;9.35;;;5.13;;
22144;SDS011;11238;48.730;11.566;2022-07-26T03:14:51;8.00;;;5.38;;
22144;SDS011;11238;48.730;11.566;2022-07-26T03:17:17;7.20;;;5.00;;
22144;SDS011;11238;48.730;11.566;2022-07-26T03:19:43;6.63;;;4.88;;
22144;SDS011;11238;48.730;11.566;2022-07-26T03:22:09;6.40;;;4.47;;
22144;SDS011;11238;48.730;11.566;2022-07-26T03:24:35;5.85;;;4.60;;
22144;SDS011;11238;48.730;11.566;2022-07-26T03:27:01;7.00;;;5.05;;
22144;SDS011;11238;48.730;11.566;2022-07-26T03:29:28;8.82;;;5.25;;
22144;SDS011;11238;48.730;11.566;2022-07-26T03:31:54;6.30;;;4.97;;
22144;SDS011;11238;48.730;11.566;2022-07-26T03:34:20;6.45;;;5.00;;
22144;SDS011;11238;48.730;11.566;2022-07-26T03:36:46;5.97;;;4.40;;
22144;SDS011;11238;48.730;11.566;2022-07-26T03:39:11;6.75;;;5.13;;
22144;SDS011;11238;48.730;11.566;2022-07-26T03:41:37;7.30;;;4.82;;
22144;SDS011;11238;48.730;11.566;2022-07-26T03:44:04;7.05;;;4.93;;
22144;SDS011;11238;48.730;11.566;2022-07-26T03:46:29;6.90;;;5.22;;
22144;SDS011;11238;48.730;11.566;2022-07-26T03:48:55;6.93;;;4.90;;
22144;SDS011;11238;48.730;11.566;2022-07-26T03:51:22;9.95;;;5.20;;
22144;SDS011;11238;48.730;11.566;2022-07-26T03:53:49;8.45;;;4.68;;
22144;SDS011;11238;48.730;11.566;2022-07-26T03:56:15;9.65;;;5.00;;
22144;SDS011;11238;48.730;11.566;2022-07-26T03:59:14;7.43;;;5.13;;
22144;SDS011;11238;48.730;11.566;2022-07-26T04:01:39;11.18;;;5.32;;
22144;SDS011;11238;48.730;11.566;2022-07-26T04:04:07;6.68;;;4.72;;
22144;SDS011;11238;48.730;11.566;2022-07-26T04:06:34;7.22;;;5.30;;
22144;SDS011;11238;48.730;11.566;2022-07-26T04:09:00;7.65;;;5.47;;
22144;SDS011;11238;48.730;11.566;2022-07-26T04:11:27;9.75;;;5.70;;
22144;SDS011;11238;48.730;11.566;2022-07-26T04:13:53;7.13;;;4.97;;
22144;SDS011;11238;48.730;11.566;2022-07-26T04:16:19;13.18;;;5.00;;
22144;SDS011;11238;48.730;11.566;2022-07-26T04:18:45;6.95;;;5.38;;
22144;SDS011;11238;48.730;11.566;2022-07-26T04:21:11;6.95;;;4.85;;
22144;SDS011;11238;48.730;11.566;2022-07-26T04:23:36;8.90;;;5.35;;
22144;SDS011;11238;48.730;11.566;2022-07-26T04:26:02;8.60;;;5.70;;
22144;SDS011;11238;48.730;11.566;2022-07-26T04:28:28;10.13;;;5.60;;
22144;SDS011;11238;48.730;11.566;2022-07-26T04:30:55;6.05;;;4.55;;
22144;SDS011;11238;48.730;11.566;2022-07-26T04:33:22;9.35;;;4.60;;
22144;SDS011;11238;48.730;11.566;2022-07-26T04:35:47;7.28;;;5.20;;
22144;SDS011;11238;48.730;11.566;2022-07-26T04:38:13;6.95;;;5.35;;
22144;SDS011;11238;48.730;11.566;2022-07-26T04:40:39;7.00;;;5.20;;
22144;SDS011;11238;48.730;11.566;2022-07-26T04:43:05;8.07;;;5.03;;
22144;SDS011;11238;48.730;11.566;2022-07-26T04:45:31;6.20;;;4.57;;
22144;SDS011;11238;48.730;11.566;2022-07-26T04:47:57;8.10;;;5.38;;
22144;SDS011;11238;48.730;11.566;2022-07-26T04:50:23;10.18;;;4.97;;
22144;SDS011;11238;48.730;11.566;2022-07-26T04:52:49;7.40;;;5.22;;
22144;SDS011;11238;48.730;11.566;2022-07-26T04:55:16;6.28;;;4.55;;
22144;SDS011;11238;48.730;11.566;2022-07-26T04:57:43;9.45;;;5.22;;
22144;SDS011;11238;48.730;11.566;2022-07-26T05:00:10;6.57;;;4.80;;
22144;SDS011;11238;48.730;11.566;2022-07-26T05:02:37;9.25;;;5.32;;
22144;SDS011;11238;48.730;11.566;2022-07-26T05:05:04;5.78;;;4.68;;
22144;SDS011;11238;48.730;11.566;2022-07-26T05:07:42;8.60;;;5.00;;
22144;SDS011;11238;48.730;11.566;2022-07-26T05:10:17;6.35;;;4.45;;
22144;SDS011;11238;48.730;11.566;2022-07-26T05:12:46;12.77;;;5.07;;
22144;SDS011;11238;48.730;11.566;2022-07-26T05:15:13;13.32;;;4.97;;
22144;SDS011;11238;48.730;11.566;2022-07-26T05:17:42;8.10;;;4.50;;
22144;SDS011;11238;48.730;11.566;2022-07-26T05:20:09;7.35;;;4.07;;
22144;SDS011;11238;48.730;11.566;2022-07-26T05:22:37;6.90;;;4.18;;
22144;SDS011;11238;48.730;11.566;2022-07-26T05:25:03;7.22;;;4.10;;
22144;SDS011;11238;48.730;11.566;2022-07-26T05:27:31;7.47;;;4.10;;
22144;SDS011;11238;48.730;11.566;2022-07-26T05:29:57;9.85;;;3.95;;
22144;SDS011;11238;48.730;11.566;2022-07-26T05:32:23;22.23;;;4.25;;
22144;SDS011;11238;48.730;11.566;2022-07-26T05:34:49;8.38;;;3.83;;
22144;SDS011;11238;48.730;11.566;2022-07-26T05:37:15;7.15;;;3.67;;
22144;SDS011;11238;48.730;11.566;2022-07-26T05:39:41;7.40;;;3.35;;
22144;SDS011;11238;48.730;11.566;2022-07-26T05:42:07;7.13;;;3.40;;
22144;SDS011;11238;48.730;11.566;2022-07-26T05:44:33;6.05;;;3.28;;
22144;SDS011;11238;48.730;11.566;2022-07-26T05:46:58;12.07;;;4.00;;
22144;SDS011;11238;48.730;11.566;2022-07-26T05:49:25;8.73;;;4.05;;
22144;SDS011;11238;48.730;11.566;2022-07-26T05:51:50;8.32;;;3.35;;
22144;SDS011;11238;48.730;11.566;2022-07-26T05:54:17;7.10;;;3.60;;
22144;SDS011;11238;48.730;11.566;2022-07-26T05:56:45;7.88;;;3.60;;
22144;SDS011;11238;48.730;11.566;2022-07-26T05:59:11;9.05;;;3.38;;
22144;SDS011;11238;48.730;11.566;2022-07-26T06:01:37;6.13;;;3.30;;
22144;SDS011;11238;48.730;11.566;2022-07-26T06:04:03;5.90;;;3.40;;
22144;SDS011;11238;48.730;11.566;2022-07-26T06:06:29;6.05;;;3.00;;
22144;SDS011;11238;48.730;11.566;2022-07-26T06:08:55;6.50;;;3.10;;
22144;SDS011;11238;48.730;11.566;2022-07-26T06:11:21;4.53;;;3.05;;
22144;SDS011;11238;48.730;11.566;2022-07-26T06:13:47;8.25;;;3.35;;
22144;SDS011;11238;48.730;11.566;2022-07-26T06:16:13;4.75;;;2.75;;
22144;SDS011;11238;48.730;11.566;2022-07-26T06:18:38;7.95;;;3.17;;
22144;SDS011;11238;48.730;11.566;2022-07-26T06:21:04;7.55;;;3.08;;
22144;SDS011;11238;48.730;11.566;2022-07-26T06:23:32;3.92;;;2.58;;
22144;SDS011;11238;48.730;11.566;2022-07-26T06:25:58;7.05;;;2.75;;
22144;SDS011;11238;48.730;11.566;2022-07-26T06:28:24;10.07;;;3.08;;
22144;SDS011;11238;48.730;11.566;2022-07-26T06:30:50;8.63;;;2.80;;
22144;SDS011;11238;48.730;11.566;2022-07-26T06:33:15;5.78;;;2.53;;
22144;SDS011;11238;48.730;11.566;2022-07-26T06:35:41;4.60;;;2.40;;
22144;SDS011;11238;48.730;11.566;2022-07-26T06:38:07;7.70;;;2.67;;
22144;SDS011;11238;48.730;11.566;2022-07-26T06:40:34;6.05;;;2.47;;
22144;SDS011;11238;48.730;11.566;2022-07-26T06:43:00;7.28;;;2.58;;
22144;SDS011;11238;48.730;11.566;2022-07-26T06:45:26;3.47;;;2.20;;
22144;SDS011;11238;48.730;11.566;2022-07-26T06:47:53;4.25;;;2.13;;
22144;SDS011;11238;48.730;11.566;2022-07-26T06:50:19;5.93;;;2.40;;
22144;SDS011;11238;48.730;11.566;2022-07-26T06:52:45;2.97;;;2.30;;
22144;SDS011;11238;48.730;11.566;2022-07-26T06:55:11;4.05;;;2.63;;
22144;SDS011;11238;48.730;11.566;2022-07-26T06:57:37;7.32;;;2.40;;
22144;SDS011;11238;48.730;11.566;2022-07-26T07:00:04;7.18;;;2.42;;
22144;SDS011;11238;48.730;11.566;2022-07-26T07:02:31;4.65;;;2.25;;
22144;SDS011;11238;48.730;11.566;2022-07-26T07:04:57;4.65;;;2.28;;
22144;SDS011;11238;48.730;11.566;2022-07-26T07:07:23;6.53;;;2.35;;
22144;SDS011;11238;48.730;11.566;2022-07-26T07:09:49;5.45;;;2.50;;
22144;SDS011;11238;48.730;11.566;2022-07-26T07:12:15;5.13;;;2.42;;
22144;SDS011;11238;48.730;11.566;2022-07-26T07:14:41;7.70;;;2.25;;
22144;SDS011;11238;48.730;11.566;2022-07-26T07:17:07;5.90;;;2.20;;
22144;SDS011;11238;48.730;11.566;2022-07-26T07:19:34;5.88;;;2.13;;
22144;SDS011;11238;48.730;11.566;2022-07-26T07:22:04;4.00;;;2.10;;
22144;SDS011;11238;48.730;11.566;2022-07-26T07:24:30;5.25;;;2.20;;
22144;SDS011;11238;48.730;11.566;2022-07-26T07:26:56;4.75;;;2.10;;
22144;SDS011;11238;48.730;11.566;2022-07-26T07:29:24;6.05;;;2.15;;
22144;SDS011;11238;48.730;11.566;2022-07-26T07:31:50;6.47;;;2.30;;
22144;SDS011;11238;48.730;11.566;2022-07-26T07:34:16;3.63;;;2.00;;
22144;SDS011;11238;48.730;11.566;2022-07-26T07:36:42;3.88;;;1.77;;
22144;SDS011;11238;48.730;11.566;2022-07-26T07:39:08;7.15;;;1.90;;
22144;SDS011;11238;48.730;11.566;2022-07-26T07:41:34;3.47;;;2.28;;
22144;SDS011;11238;48.730;11.566;2022-07-26T07:44:03;5.95;;;2.30;;
22144;SDS011;11238;48.730;11.566;2022-07-26T07:46:29;5.68;;;1.98;;
22144;SDS011;11238;48.730;11.566;2022-07-26T07:48:55;3.20;;;1.98;;
22144;SDS011;11238;48.730;11.566;2022-07-26T07:51:23;4.90;;;2.30;;
22144;SDS011;11238;48.730;11.566;2022-07-26T07:53:49;4.57;;;2.08;;
22144;SDS011;11238;48.730;11.566;2022-07-26T07:56:15;6.38;;;2.00;;
22144;SDS011;11238;48.730;11.566;2022-07-26T07:58:42;7.07;;;2.47;;
22144;SDS011;11238;48.730;11.566;2022-07-26T08:01:08;4.63;;;2.15;;
22144;SDS011;11238;48.730;11.566;2022-07-26T08:03:33;4.80;;;1.90;;
22144;SDS011;11238;48.730;11.566;2022-07-26T08:06:00;5.47;;;1.80;;
22144;SDS011;11238;48.730;11.566;2022-07-26T08:08:27;4.75;;;2.17;;
22144;SDS011;11238;48.730;11.566;2022-07-26T08:10:52;3.47;;;1.90;;
22144;SDS011;11238;48.730;11.566;2022-07-26T08:13:20;4.07;;;2.08;;
22144;SDS011;11238;48.730;11.566;2022-07-26T08:15:47;4.82;;;2.00;;
22144;SDS011;11238;48.730;11.566;2022-07-26T08:18:14;3.75;;;2.10;;
22144;SDS011;11238;48.730;11.566;2022-07-26T08:20:39;4.07;;;1.80;;
22144;SDS011;11238;48.730;11.566;2022-07-26T08:23:05;7.25;;;2.22;;
22144;SDS011;11238;48.730;11.566;2022-07-26T08:25:31;3.33;;;1.85;;
22144;SDS011;11238;48.730;11.566;2022-07-26T08:27:56;6.85;;;2.17;;
22144;SDS011;11238;48.730;11.566;2022-07-26T08:30:22;6.05;;;2.00;;
22144;SDS011;11238;48.730;11.566;2022-07-26T08:32:48;5.43;;;1.98;;
22144;SDS011;11238;48.730;11.566;2022-07-26T08:35:14;3.85;;;1.83;;
22144;SDS011;11238;48.730;11.566;2022-07-26T08:37:40;2.40;;;1.70;;
22144;SDS011;11238;48.730;11.566;2022-07-26T08:40:06;4.75;;;2.05;;
22144;SDS011;11238;48.730;11.566;2022-07-26T08:42:32;5.35;;;2.17;;
22144;SDS011;11238;48.730;11.566;2022-07-26T08:44:58;2.63;;;1.90;;
22144;SDS011;11238;48.730;11.566;2022-07-26T08:47:24;3.45;;;1.90;;
22144;SDS011;11238;48.730;11.566;2022-07-26T08:49:50;3.15;;;1.70;;
22144;SDS011;11238;48.730;11.566;2022-07-26T08:52:16;3.95;;;2.45;;
22144;SDS011;11238;48.730;11.566;2022-07-26T08:54:42;2.15;;;1.70;;
22144;SDS011;11238;48.730;11.566;2022-07-26T08:57:13;4.15;;;2.03;;
22144;SDS011;11238;48.730;11.566;2022-07-26T08:59:40;5.18;;;1.95;;
22144;SDS011;11238;48.730;11.566;2022-07-26T09:02:07;3.40;;;1.92;;
22144;SDS011;11238;48.730;11.566;2022-07-26T09:04:42;2.72;;;1.65;;
22144;SDS011;11238;48.730;11.566;2022-07-26T09:07:11;3.80;;;1.77;;
22144;SDS011;11238;48.730;11.566;2022-07-26T09:09:59;3.20;;;1.90;;
22144;SDS011;11238;48.730;11.566;2022-07-26T09:12:27;4.20;;;1.80;;
22144;SDS011;11238;48.730;11.566;2022-07-26T09:14:54;5.32;;;1.70;;
22144;SDS011;11238;48.730;11.566;2022-07-26T09:17:21;2.95;;;1.80;;
22144;SDS011;11238;48.730;11.566;2022-07-26T09:20:02;3.55;;;1.67;;
22144;SDS011;11238;48.730;11.566;2022-07-26T09:22:54;5.25;;;1.50;;
22144;SDS011;11238;48.730;11.566;2022-07-26T09:25:28;1.83;;;1.50;;
22144;SDS011;11238;48.730;11.566;2022-07-26T09:27:56;2.28;;;1.42;;
22144;SDS011;11238;48.730;11.566;2022-07-26T09:30:25;7.70;;;2.10;;
22144;SDS011;11238;48.730;11.566;2022-07-26T09:32:59;3.53;;;1.70;;
22144;SDS011;11238;48.730;11.566;2022-07-26T09:35:27;3.45;;;1.60;;
22144;SDS011;11238;48.730;11.566;2022-07-26T09:37:55;2.88;;;1.48;;
22144;SDS011;11238;48.730;11.566;2022-07-26T09:40:21;2.53;;;1.65;;
22144;SDS011;11238;48.730;11.566;2022-07-26T09:42:53;2.70;;;1.52;;
22144;SDS011;11238;48.730;11.566;2022-07-26T09:45:30;2.75;;;1.98;;
22144;SDS011;11238;48.730;11.566;2022-07-26T09:47:58;3.63;;;1.30;;
22144;SDS011;11238;48.730;11.566;2022-07-26T09:50:26;2.97;;;2.08;;
22144;SDS011;11238;48.730;11.566;2022-07-26T09:55:33;5.45;;;2.47;;
22144;SDS011;11238;48.730;11.566;2022-07-26T09:58:17;5.93;;;1.75;;
22144;SDS011;11238;48.730;11.566;2022-07-26T10:00:43;6.15;;;2.35;;
22144;SDS011;11238;48.730;11.566;2022-07-26T10:03:09;3.45;;;2.25;;
22144;SDS011;11238;48.730;11.566;2022-07-26T10:05:36;3.65;;;2.35;;
22144;SDS011;11238;48.730;11.566;2022-07-26T10:08:02;4.00;;;1.55;;
22144;SDS011;11238;48.730;11.566;2022-07-26T10:10:44;7.18;;;3.53;;
22144;SDS011;11238;48.730;11.566;2022-07-26T10:13:13;2.70;;;1.60;;
22144;SDS011;11238;48.730;11.566;2022-07-26T10:15:47;4.35;;;1.80;;
22144;SDS011;11238;48.730;11.566;2022-07-26T10:24:13;5.07;;;2.70;;
22144;SDS011;11238;48.730;11.566;2022-07-26T10:26:48;6.43;;;2.78;;
22144;SDS011;11238;48.730;11.566;2022-07-26T10:31:49;4.28;;;2.20;;
22144;SDS011;11238;48.730;11.566;2022-07-26T10:34:37;2.72;;;1.80;;
22144;SDS011;11238;48.730;11.566;2022-07-26T10:37:08;5.68;;;2.42;;
22144;SDS011;11238;48.730;11.566;2022-07-26T10:39:36;4.07;;;1.60;;
22144;SDS011;11238;48.730;11.566;2022-07-26T10:42:06;4.63;;;2.28;;
22144;SDS011;11238;48.730;11.566;2022-07-26T10:44:37;4.45;;;1.70;;
22144;SDS011;11238;48.730;11.566;2022-07-26T10:47:10;4.05;;;1.90;;
22144;SDS011;11238;48.730;11.566;2022-07-26T10:49:40;3.35;;;2.08;;
22144;SDS011;11238;48.730;11.566;2022-07-26T10:52:28;3.35;;;1.63;;
22144;SDS011;11238;48.730;11.566;2022-07-26T10:57:31;4.13;;;1.98;;
22144;SDS011;11238;48.730;11.566;2022-07-26T10:59:59;5.10;;;2.00;;
22144;SDS011;11238;48.730;11.566;2022-07-26T11:02:31;5.10;;;1.90;;
22144;SDS011;11238;48.730;11.566;2022-07-26T11:05:12;3.78;;;1.55;;
22144;SDS011;11238;48.730;11.566;2022-07-26T11:08:12;2.63;;;1.42;;
22144;SDS011;11238;48.730;11.566;2022-07-26T11:10:34;2.33;;;1.40;;
22144;SDS011;11238;48.730;11.566;2022-07-26T11:13:03;3.78;;;1.60;;
22144;SDS011;11238;48.730;11.566;2022-07-26T11:15:29;1.98;;;1.48;;
22144;SDS011;11238;48.730;11.566;2022-07-26T11:18:09;2.58;;;1.80;;
22144;SDS011;11238;48.730;11.566;2022-07-26T11:20:40;4.65;;;1.83;;
22144;SDS011;11238;48.730;11.566;2022-07-26T11:23:20;7.85;;;1.88;;
22144;SDS011;11238;48.730;11.566;2022-07-26T11:26:01;4.88;;;1.45;;
22144;SDS011;11238;48.730;11.566;2022-07-26T11:28:42;2.13;;;1.48;;
22144;SDS011;11238;48.730;11.566;2022-07-26T11:31:13;3.58;;;1.40;;
22144;SDS011;11238;48.730;11.566;2022-07-26T11:33:41;3.65;;;1.60;;
22144;SDS011;11238;48.730;11.566;2022-07-26T11:36:09;4.25;;;1.65;;
22144;SDS011;11238;48.730;11.566;2022-07-26T11:38:43;3.95;;;1.70;;
22144;SDS011;11238;48.730;11.566;2022-07-26T11:41:14;2.85;;;1.50;;
22144;SDS011;11238;48.730;11.566;2022-07-26T11:43:43;1.98;;;1.55;;
22144;SDS011;11238;48.730;11.566;2022-07-26T11:46:09;3.55;;;1.60;;
22144;SDS011;11238;48.730;11.566;2022-07-26T11:48:35;4.05;;;1.65;;
22144;SDS011;11238;48.730;11.566;2022-07-26T11:51:09;4.80;;;1.50;;
22144;SDS011;11238;48.730;11.566;2022-07-26T11:53:36;3.22;;;1.27;;
22144;SDS011;11238;48.730;11.566;2022-07-26T11:56:16;3.47;;;1.50;;
22144;SDS011;11238;48.730;11.566;2022-07-26T11:58:48;2.35;;;1.40;;
22144;SDS011;11238;48.730;11.566;2022-07-26T12:01:23;1.65;;;1.23;;
22144;SDS011;11238;48.730;11.566;2022-07-26T12:03:55;1.75;;;1.30;;
22144;SDS011;11238;48.730;11.566;2022-07-26T12:06:24;3.10;;;1.40;;
22144;SDS011;11238;48.730;11.566;2022-07-26T12:08:54;5.05;;;1.50;;
22144;SDS011;11238;48.730;11.566;2022-07-26T12:11:21;3.38;;;1.70;;
22144;SDS011;11238;48.730;11.566;2022-07-26T12:13:50;5.95;;;1.60;;
22144;SDS011;11238;48.730;11.566;2022-07-26T12:16:32;4.28;;;1.45;;
22144;SDS011;11238;48.730;11.566;2022-07-26T12:19:06;3.15;;;1.30;;
22144;SDS011;11238;48.730;11.566;2022-07-26T12:24:04;2.85;;;1.20;;
22144;SDS011;11238;48.730;11.566;2022-07-26T12:26:30;1.85;;;1.23;;
22144;SDS011;11238;48.730;11.566;2022-07-26T12:28:56;2.58;;;1.35;;
22144;SDS011;11238;48.730;11.566;2022-07-26T12:31:28;4.47;;;1.05;;
22144;SDS011;11238;48.730;11.566;2022-07-26T12:33:55;2.50;;;1.38;;
22144;SDS011;11238;48.730;11.566;2022-07-26T12:36:22;2.17;;;1.10;;
22144;SDS011;11238;48.730;11.566;2022-07-26T12:38:49;3.53;;;1.25;;
22144;SDS011;11238;48.730;11.566;2022-07-26T12:44:16;1.85;;;1.17;;
22144;SDS011;11238;48.730;11.566;2022-07-26T12:46:42;1.67;;;1.00;;
22144;SDS011;11238;48.730;11.566;2022-07-26T12:49:09;5.97;;;1.30;;
22144;SDS011;11238;48.730;11.566;2022-07-26T12:51:35;5.28;;;1.23;;
22144;SDS011;11238;48.730;11.566;2022-07-26T12:54:01;1.98;;;1.20;;
22144;SDS011;11238;48.730;11.566;2022-07-26T12:56:30;6.70;;;1.10;;
22144;SDS011;11238;48.730;11.566;2022-07-26T12:58:56;6.75;;;1.05;;
22144;SDS011;11238;48.730;11.566;2022-07-26T13:01:27;2.22;;;1.20;;
22144;SDS011;11238;48.730;11.566;2022-07-26T13:03:53;4.03;;;1.00;;
22144;SDS011;11238;48.730;11.566;2022-07-26T13:06:20;3.40;;;0.98;;
22144;SDS011;11238;48.730;11.566;2022-07-26T13:08:46;4.53;;;1.08;;
22144;SDS011;11238;48.730;11.566;2022-07-26T13:11:12;3.88;;;1.20;;
22144;SDS011;11238;48.730;11.566;2022-07-26T13:13:37;3.90;;;1.20;;
22144;SDS011;11238;48.730;11.566;2022-07-26T13:16:03;1.90;;;0.95;;
22144;SDS011;11238;48.730;11.566;2022-07-26T13:18:29;4.93;;;1.20;;
22144;SDS011;11238;48.730;11.566;2022-07-26T13:20:55;3.17;;;1.10;;
22144;SDS011;11238;48.730;11.566;2022-07-26T13:23:21;3.22;;;1.02;;
22144;SDS011;11238;48.730;11.566;2022-07-26T13:25:47;6.85;;;1.00;;
22144;SDS011;11238;48.730;11.566;2022-07-26T13:28:13;1.75;;;0.80;;
22144;SDS011;11238;48.730;11.566;2022-07-26T13:30:40;1.80;;;0.90;;
22144;SDS011;11238;48.730;11.566;2022-07-26T13:33:07;2.35;;;1.10;;
22144;SDS011;11238;48.730;11.566;2022-07-26T13:35:39;4.25;;;1.00;;
22144;SDS011;11238;48.730;11.566;2022-07-26T13:38:07;4.65;;;0.90;;
22144;SDS011;11238;48.730;11.566;2022-07-26T13:40:33;4.20;;;1.00;;
22144;SDS011;11238;48.730;11.566;2022-07-26T13:42:58;2.83;;;0.90;;
22144;SDS011;11238;48.730;11.566;2022-07-26T13:45:25;3.90;;;0.95;;
22144;SDS011;11238;48.730;11.566;2022-07-26T13:48:08;1.92;;;0.90;;
22144;SDS011;11238;48.730;11.566;2022-07-26T13:50:34;1.45;;;0.60;;
22144;SDS011;11238;48.730;11.566;2022-07-26T13:53:03;5.15;;;0.90;;
22144;SDS011;11238;48.730;11.566;2022-07-26T13:55:29;4.38;;;0.90;;
22144;SDS011;11238;48.730;11.566;2022-07-26T13:57:56;2.65;;;0.98;;
22144;SDS011;11238;48.730;11.566;2022-07-26T14:00:22;2.70;;;1.00;;
22144;SDS011;11238;48.730;11.566;2022-07-26T14:02:52;3.75;;;1.40;;
22144;SDS011;11238;48.730;11.566;2022-07-26T14:05:24;3.42;;;0.80;;
22144;SDS011;11238;48.730;11.566;2022-07-26T14:07:51;3.20;;;0.90;;
22144;SDS011;11238;48.730;11.566;2022-07-26T14:10:26;2.45;;;0.98;;
22144;SDS011;11238;48.730;11.566;2022-07-26T14:12:52;1.90;;;1.00;;
22144;SDS011;11238;48.730;11.566;2022-07-26T14:15:20;4.93;;;0.90;;
22144;SDS011;11238;48.730;11.566;2022-07-26T14:17:46;1.33;;;0.90;;
22144;SDS011;11238;48.730;11.566;2022-07-26T14:20:15;4.28;;;0.90;;
22144;SDS011;11238;48.730;11.566;2022-07-26T14:22:45;2.60;;;0.90;;
22144;SDS011;11238;48.730;11.566;2022-07-26T14:25:24;2.20;;;0.63;;
22144;SDS011;11238;48.730;11.566;2022-07-26T14:27:54;1.88;;;0.82;;
22144;SDS011;11238;48.730;11.566;2022-07-26T14:30:25;3.38;;;0.90;;
22144;SDS011;11238;48.730;11.566;2022-07-26T14:32:56;3.53;;;0.80;;
22144;SDS011;11238;48.730;11.566;2022-07-26T14:35:29;1.45;;;0.80;;
22144;SDS011;11238;48.730;11.566;2022-07-26T14:37:56;2.90;;;0.80;;
22144;SDS011;11238;48.730;11.566;2022-07-26T14:40:22;3.78;;;0.90;;
22144;SDS011;11238;48.730;11.566;2022-07-26T14:42:55;2.90;;;0.88;;
22144;SDS011;11238;48.730;11.566;2022-07-26T14:45:23;4.07;;;0.63;;
22144;SDS011;11238;48.730;11.566;2022-07-26T14:47:52;1.98;;;0.82;;
22144;SDS011;11238;48.730;11.566;2022-07-26T14:50:22;4.35;;;0.88;;
22144;SDS011;11238;48.730;11.566;2022-07-26T14:52:51;3.50;;;0.88;;
22144;SDS011;11238;48.730;11.566;2022-07-26T14:55:18;2.53;;;0.88;;
22144;SDS011;11238;48.730;11.566;2022-07-26T14:57:47;5.72;;;0.80;;